sensor_id;sensor_type;location;lat;lon;timestamp;P1;durP1;ratioP1;P2;durP2;ratioP2
65210;SDS011;51794;52.758;55.792;2022-10-15T00:02:05;13.20;;;8.05;;
65210;SDS011;51794;52.758;55.792;2022-10-15T00:04:32;15.65;;;9.88;;
65210;SDS011;51794;52.758;55.792;2022-10-15T00:06:58;14.48;;;9.35;;
65210;SDS011;51794;52.758;55.792;2022-10-15T00:09:23;17.02;;;9.82;;
65210;SDS011;51794;52.758;55.792;2022-10-15T00:11:49;14.90;;;8.88;;
65210;SDS011;51794;52.758;55.792;2022-10-15T00:14:15;16.17;;;9.40;;
65210;SDS011;51794;52.758;55.792;2022-10-15T00:16:41;15.45;;;9.95;;
65210;SDS011;51794;52.758;55.792;2022-10-15T00:19:07;15.75;;;10.07;;
65210;SDS011;51794;52.758;55.792;2022-10-15T00:21:33;16.17;;;9.68;;
65210;SDS011;51794;52.758;55.792;2022-10-15T00:23:59;17.45;;;10.77;;
65210;SDS011;51794;52.758;55.792;2022-10-15T00:26:26;14.50;;;9.35;;
65210;SDS011;51794;52.758;55.792;2022-10-15T00:28:53;15.80;;;9.13;;
65210;SDS011;51794;52.758;55.792;2022-10-15T00:31:19;14.52;;;10.02;;
65210;SDS011;51794;52.758;55.792;2022-10-15T00:33:45;15.65;;;9.77;;
65210;SDS011;51794;52.758;55.792;2022-10-15T00:36:14;14.50;;;9.23;;
65210;SDS011;51794;52.758;55.792;2022-10-15T00:38:40;15.00;;;10.30;;
65210;SDS011;51794;52.758;55.792;2022-10-15T00:41:07;15.05;;;9.50;;
65210;SDS011;51794;52.758;55.792;2022-10-15T00:43:37;15.85;;;10.88;;
65210;SDS011;51794;52.758;55.792;2022-10-15T00:46:03;15.98;;;10.88;;
65210;SDS011;51794;52.758;55.792;2022-10-15T00:48:29;15.48;;;10.65;;
65210;SDS011;51794;52.758;55.792;2022-10-15T00:50:56;15.70;;;9.98;;
65210;SDS011;51794;52.758;55.792;2022-10-15T00:53:23;13.85;;;9.15;;
65210;SDS011;51794;52.758;55.792;2022-10-15T00:55:49;16.40;;;10.52;;
65210;SDS011;51794;52.758;55.792;2022-10-15T00:58:16;12.63;;;9.27;;
65210;SDS011;51794;52.758;55.792;2022-10-15T01:00:42;12.82;;;9.13;;
65210;SDS011;51794;52.758;55.792;2022-10-15T01:03:08;14.32;;;9.77;;
65210;SDS011;51794;52.758;55.792;2022-10-15T01:05:34;14.50;;;10.05;;
65210;SDS011;51794;52.758;55.792;2022-10-15T01:08:00;15.77;;;10.85;;
65210;SDS011;51794;52.758;55.792;2022-10-15T01:10:27;13.88;;;10.70;;
65210;SDS011;51794;52.758;55.792;2022-10-15T01:15:23;14.50;;;10.60;;
65210;SDS011;51794;52.758;55.792;2022-10-15T01:18:24;13.13;;;8.13;;
65210;SDS011;51794;52.758;55.792;2022-10-15T01:31:42;14.45;;;9.55;;
65210;SDS011;51794;52.758;55.792;2022-10-15T01:34:12;14.15;;;9.75;;
65210;SDS011;51794;52.758;55.792;2022-10-15T01:39:26;14.40;;;9.65;;
65210;SDS011;51794;52.758;55.792;2022-10-15T01:41:55;12.32;;;9.00;;
65210;SDS011;51794;52.758;55.792;2022-10-15T01:44:22;11.57;;;8.05;;
65210;SDS011;51794;52.758;55.792;2022-10-15T01:46:51;11.15;;;7.88;;
65210;SDS011;51794;52.758;55.792;2022-10-15T01:49:20;12.13;;;8.30;;
65210;SDS011;51794;52.758;55.792;2022-10-15T01:51:46;13.10;;;9.35;;
65210;SDS011;51794;52.758;55.792;2022-10-15T01:54:14;11.10;;;7.82;;
65210;SDS011;51794;52.758;55.792;2022-10-15T01:56:43;10.32;;;8.38;;
65210;SDS011;51794;52.758;55.792;2022-10-15T01:59:14;12.73;;;8.57;;
65210;SDS011;51794;52.758;55.792;2022-10-15T02:01:42;10.88;;;8.18;;
65210;SDS011;51794;52.758;55.792;2022-10-15T02:04:24;9.60;;;6.90;;
65210;SDS011;51794;52.758;55.792;2022-10-15T02:06:57;10.88;;;7.82;;
65210;SDS011;51794;52.758;55.792;2022-10-15T02:17:16;12.18;;;8.40;;
65210;SDS011;51794;52.758;55.792;2022-10-15T02:19:48;10.00;;;6.60;;
65210;SDS011;51794;52.758;55.792;2022-10-15T02:22:16;12.70;;;8.63;;
65210;SDS011;51794;52.758;55.792;2022-10-15T02:24:46;11.32;;;8.68;;
65210;SDS011;51794;52.758;55.792;2022-10-15T02:27:15;10.98;;;7.82;;
65210;SDS011;51794;52.758;55.792;2022-10-15T02:29:41;12.65;;;8.55;;
65210;SDS011;51794;52.758;55.792;2022-10-15T02:32:08;13.02;;;8.80;;
65210;SDS011;51794;52.758;55.792;2022-10-15T02:34:35;14.15;;;9.52;;
65210;SDS011;51794;52.758;55.792;2022-10-15T02:37:02;14.32;;;9.60;;
65210;SDS011;51794;52.758;55.792;2022-10-15T02:39:28;14.75;;;9.68;;
65210;SDS011;51794;52.758;55.792;2022-10-15T02:41:54;13.27;;;9.93;;
65210;SDS011;51794;52.758;55.792;2022-10-15T02:44:21;13.30;;;8.98;;
65210;SDS011;51794;52.758;55.792;2022-10-15T02:46:47;13.07;;;8.85;;
65210;SDS011;51794;52.758;55.792;2022-10-15T02:49:13;12.48;;;8.75;;
65210;SDS011;51794;52.758;55.792;2022-10-15T02:51:39;11.95;;;8.95;;
65210;SDS011;51794;52.758;55.792;2022-10-15T02:54:05;11.43;;;8.05;;
65210;SDS011;51794;52.758;55.792;2022-10-15T02:56:31;13.27;;;8.23;;
65210;SDS011;51794;52.758;55.792;2022-10-15T02:58:57;14.07;;;9.32;;
65210;SDS011;51794;52.758;55.792;2022-10-15T03:01:23;12.90;;;8.70;;
65210;SDS011;51794;52.758;55.792;2022-10-15T03:03:48;12.15;;;8.15;;
65210;SDS011;51794;52.758;55.792;2022-10-15T03:06:14;9.63;;;7.32;;
65210;SDS011;51794;52.758;55.792;2022-10-15T03:08:40;11.13;;;8.20;;
65210;SDS011;51794;52.758;55.792;2022-10-15T03:11:07;12.10;;;8.90;;
65210;SDS011;51794;52.758;55.792;2022-10-15T03:13:37;12.20;;;8.40;;
65210;SDS011;51794;52.758;55.792;2022-10-15T03:16:03;10.73;;;7.50;;
65210;SDS011;51794;52.758;55.792;2022-10-15T03:18:30;12.95;;;8.60;;
65210;SDS011;51794;52.758;55.792;2022-10-15T03:20:56;13.32;;;8.85;;
65210;SDS011;51794;52.758;55.792;2022-10-15T03:23:22;10.15;;;8.27;;
65210;SDS011;51794;52.758;55.792;2022-10-15T03:25:47;10.30;;;7.85;;
65210;SDS011;51794;52.758;55.792;2022-10-15T03:28:13;12.10;;;7.75;;
65210;SDS011;51794;52.758;55.792;2022-10-15T03:30:40;9.75;;;7.05;;
65210;SDS011;51794;52.758;55.792;2022-10-15T03:33:06;10.82;;;7.45;;
65210;SDS011;51794;52.758;55.792;2022-10-15T03:35:32;11.75;;;8.65;;
65210;SDS011;51794;52.758;55.792;2022-10-15T03:37:57;11.02;;;8.27;;
65210;SDS011;51794;52.758;55.792;2022-10-15T03:40:23;12.27;;;8.73;;
65210;SDS011;51794;52.758;55.792;2022-10-15T03:42:49;11.10;;;7.53;;
65210;SDS011;51794;52.758;55.792;2022-10-15T03:45:16;11.32;;;8.25;;
65210;SDS011;51794;52.758;55.792;2022-10-15T03:47:42;11.88;;;8.43;;
65210;SDS011;51794;52.758;55.792;2022-10-15T03:50:08;10.95;;;7.15;;
65210;SDS011;51794;52.758;55.792;2022-10-15T03:52:38;10.27;;;7.10;;
65210;SDS011;51794;52.758;55.792;2022-10-15T03:55:04;9.55;;;6.97;;
65210;SDS011;51794;52.758;55.792;2022-10-15T03:57:31;9.50;;;6.85;;
65210;SDS011;51794;52.758;55.792;2022-10-15T03:59:57;11.00;;;7.25;;
65210;SDS011;51794;52.758;55.792;2022-10-15T04:02:23;9.40;;;7.38;;
65210;SDS011;51794;52.758;55.792;2022-10-15T04:04:52;8.20;;;5.88;;
65210;SDS011;51794;52.758;55.792;2022-10-15T04:07:19;9.18;;;6.70;;
65210;SDS011;51794;52.758;55.792;2022-10-15T04:09:45;11.77;;;6.97;;
65210;SDS011;51794;52.758;55.792;2022-10-15T04:12:11;8.50;;;6.55;;
65210;SDS011;51794;52.758;55.792;2022-10-15T04:14:37;8.43;;;6.10;;
65210;SDS011;51794;52.758;55.792;2022-10-15T04:17:02;9.38;;;6.95;;
65210;SDS011;51794;52.758;55.792;2022-10-15T04:19:28;9.35;;;6.78;;
65210;SDS011;51794;52.758;55.792;2022-10-15T04:21:55;8.95;;;6.38;;
65210;SDS011;51794;52.758;55.792;2022-10-15T04:24:21;8.82;;;6.25;;
65210;SDS011;51794;52.758;55.792;2022-10-15T04:26:46;7.72;;;6.07;;
65210;SDS011;51794;52.758;55.792;2022-10-15T04:29:12;8.57;;;5.93;;
65210;SDS011;51794;52.758;55.792;2022-10-15T04:31:38;8.90;;;6.47;;
65210;SDS011;51794;52.758;55.792;2022-10-15T04:34:04;9.18;;;6.82;;
65210;SDS011;51794;52.758;55.792;2022-10-15T04:36:30;9.10;;;6.65;;
65210;SDS011;51794;52.758;55.792;2022-10-15T04:38:56;7.88;;;6.10;;
65210;SDS011;51794;52.758;55.792;2022-10-15T04:41:22;12.07;;;7.10;;
65210;SDS011;51794;52.758;55.792;2022-10-15T04:43:47;11.20;;;7.55;;
65210;SDS011;51794;52.758;55.792;2022-10-15T04:46:13;9.68;;;6.85;;
65210;SDS011;51794;52.758;55.792;2022-10-15T04:48:39;11.73;;;7.53;;
65210;SDS011;51794;52.758;55.792;2022-10-15T04:51:05;10.27;;;6.63;;
65210;SDS011;51794;52.758;55.792;2022-10-15T04:53:32;10.82;;;6.20;;
65210;SDS011;51794;52.758;55.792;2022-10-15T04:56:02;8.50;;;6.28;;
65210;SDS011;51794;52.758;55.792;2022-10-15T04:58:28;10.40;;;7.05;;
65210;SDS011;51794;52.758;55.792;2022-10-15T05:00:54;10.25;;;7.38;;
65210;SDS011;51794;52.758;55.792;2022-10-15T05:03:20;10.45;;;6.35;;
65210;SDS011;51794;52.758;55.792;2022-10-15T05:05:46;9.10;;;6.68;;
65210;SDS011;51794;52.758;55.792;2022-10-15T05:08:11;8.43;;;6.88;;
65210;SDS011;51794;52.758;55.792;2022-10-15T05:10:37;9.57;;;7.10;;
65210;SDS011;51794;52.758;55.792;2022-10-15T05:13:03;13.13;;;7.20;;
65210;SDS011;51794;52.758;55.792;2022-10-15T05:15:29;9.90;;;6.88;;
65210;SDS011;51794;52.758;55.792;2022-10-15T05:17:54;9.45;;;7.18;;
65210;SDS011;51794;52.758;55.792;2022-10-15T05:20:20;9.25;;;7.40;;
65210;SDS011;51794;52.758;55.792;2022-10-15T05:22:46;10.48;;;6.78;;
65210;SDS011;51794;52.758;55.792;2022-10-15T05:25:12;13.05;;;6.72;;
65210;SDS011;51794;52.758;55.792;2022-10-15T05:27:38;11.90;;;7.32;;
65210;SDS011;51794;52.758;55.792;2022-10-15T05:30:04;10.48;;;7.72;;
65210;SDS011;51794;52.758;55.792;2022-10-15T05:32:30;9.43;;;7.22;;
65210;SDS011;51794;52.758;55.792;2022-10-15T05:34:55;9.10;;;7.68;;
65210;SDS011;51794;52.758;55.792;2022-10-15T05:37:21;9.32;;;6.63;;
65210;SDS011;51794;52.758;55.792;2022-10-15T05:39:48;8.70;;;6.63;;
65210;SDS011;51794;52.758;55.792;2022-10-15T05:42:14;10.43;;;6.15;;
65210;SDS011;51794;52.758;55.792;2022-10-15T05:44:39;6.72;;;6.05;;
65210;SDS011;51794;52.758;55.792;2022-10-15T05:47:05;7.18;;;6.32;;
65210;SDS011;51794;52.758;55.792;2022-10-15T05:49:36;8.68;;;6.07;;
65210;SDS011;51794;52.758;55.792;2022-10-15T05:52:01;8.38;;;7.00;;
65210;SDS011;51794;52.758;55.792;2022-10-15T05:54:27;7.00;;;6.07;;
65210;SDS011;51794;52.758;55.792;2022-10-15T05:56:53;7.22;;;6.47;;
65210;SDS011;51794;52.758;55.792;2022-10-15T05:59:19;7.65;;;5.75;;
65210;SDS011;51794;52.758;55.792;2022-10-15T06:01:45;7.13;;;5.75;;
65210;SDS011;51794;52.758;55.792;2022-10-15T06:04:10;7.03;;;6.15;;
65210;SDS011;51794;52.758;55.792;2022-10-15T06:06:36;7.00;;;5.75;;
65210;SDS011;51794;52.758;55.792;2022-10-15T06:09:02;5.65;;;4.70;;
65210;SDS011;51794;52.758;55.792;2022-10-15T06:11:28;7.10;;;5.85;;
65210;SDS011;51794;52.758;55.792;2022-10-15T06:13:54;8.05;;;5.70;;
65210;SDS011;51794;52.758;55.792;2022-10-15T06:16:19;5.88;;;4.60;;
65210;SDS011;51794;52.758;55.792;2022-10-15T06:18:45;5.30;;;4.80;;
65210;SDS011;51794;52.758;55.792;2022-10-15T06:21:11;6.63;;;5.35;;
65210;SDS011;51794;52.758;55.792;2022-10-15T06:23:37;5.75;;;5.15;;
65210;SDS011;51794;52.758;55.792;2022-10-15T06:26:04;5.70;;;5.20;;
65210;SDS011;51794;52.758;55.792;2022-10-15T06:28:30;4.97;;;4.47;;
65210;SDS011;51794;52.758;55.792;2022-10-15T06:30:59;6.20;;;5.13;;
65210;SDS011;51794;52.758;55.792;2022-10-15T06:33:25;7.65;;;4.68;;
65210;SDS011;51794;52.758;55.792;2022-10-15T06:35:50;6.40;;;5.03;;
65210;SDS011;51794;52.758;55.792;2022-10-15T06:38:16;6.32;;;4.90;;
65210;SDS011;51794;52.758;55.792;2022-10-15T06:40:42;6.53;;;4.57;;
65210;SDS011;51794;52.758;55.792;2022-10-15T06:43:08;6.13;;;5.50;;
65210;SDS011;51794;52.758;55.792;2022-10-15T06:45:35;6.03;;;5.43;;
65210;SDS011;51794;52.758;55.792;2022-10-15T06:48:02;5.43;;;4.93;;
65210;SDS011;51794;52.758;55.792;2022-10-15T06:50:30;5.70;;;5.10;;
65210;SDS011;51794;52.758;55.792;2022-10-15T06:52:56;5.38;;;4.88;;
65210;SDS011;51794;52.758;55.792;2022-10-15T06:55:21;6.20;;;5.60;;
65210;SDS011;51794;52.758;55.792;2022-10-15T06:57:47;6.43;;;5.72;;
65210;SDS011;51794;52.758;55.792;2022-10-15T07:00:13;8.40;;;6.35;;
65210;SDS011;51794;52.758;55.792;2022-10-15T07:02:39;6.28;;;5.68;;
65210;SDS011;51794;52.758;55.792;2022-10-15T07:05:05;6.10;;;5.50;;
65210;SDS011;51794;52.758;55.792;2022-10-15T07:07:31;6.75;;;5.57;;
65210;SDS011;51794;52.758;55.792;2022-10-15T07:09:57;5.90;;;5.28;;
65210;SDS011;51794;52.758;55.792;2022-10-15T07:12:22;6.90;;;5.88;;
65210;SDS011;51794;52.758;55.792;2022-10-15T07:14:48;7.35;;;6.35;;
65210;SDS011;51794;52.758;55.792;2022-10-15T07:17:14;6.57;;;5.97;;
65210;SDS011;51794;52.758;55.792;2022-10-15T07:19:40;6.03;;;5.43;;
65210;SDS011;51794;52.758;55.792;2022-10-15T07:22:06;6.45;;;5.82;;
65210;SDS011;51794;52.758;55.792;2022-10-15T07:24:32;7.40;;;6.00;;
65210;SDS011;51794;52.758;55.792;2022-10-15T07:26:58;6.32;;;5.40;;
65210;SDS011;51794;52.758;55.792;2022-10-15T07:29:23;7.78;;;5.90;;
65210;SDS011;51794;52.758;55.792;2022-10-15T07:31:49;6.95;;;5.20;;
65210;SDS011;51794;52.758;55.792;2022-10-15T07:34:15;6.82;;;5.40;;
65210;SDS011;51794;52.758;55.792;2022-10-15T07:36:41;5.75;;;5.25;;
65210;SDS011;51794;52.758;55.792;2022-10-15T07:39:07;8.43;;;5.72;;
65210;SDS011;51794;52.758;55.792;2022-10-15T07:41:33;6.53;;;5.93;;
65210;SDS011;51794;52.758;55.792;2022-10-15T07:43:59;6.90;;;6.20;;
65210;SDS011;51794;52.758;55.792;2022-10-15T07:49:45;5.65;;;5.15;;
65210;SDS011;51794;52.758;55.792;2022-10-15T07:52:11;6.22;;;5.57;;
65210;SDS011;51794;52.758;55.792;2022-10-15T07:54:37;7.57;;;6.22;;
65210;SDS011;51794;52.758;55.792;2022-10-15T07:57:03;6.07;;;5.43;;
65210;SDS011;51794;52.758;55.792;2022-10-15T07:59:31;8.18;;;6.25;;
65210;SDS011;51794;52.758;55.792;2022-10-15T08:01:57;8.50;;;5.88;;
65210;SDS011;51794;52.758;55.792;2022-10-15T08:04:23;7.07;;;5.70;;
65210;SDS011;51794;52.758;55.792;2022-10-15T08:06:49;4.75;;;4.20;;
65210;SDS011;51794;52.758;55.792;2022-10-15T08:09:14;4.43;;;4.03;;
65210;SDS011;51794;52.758;55.792;2022-10-15T08:11:40;4.93;;;4.53;;
65210;SDS011;51794;52.758;55.792;2022-10-15T08:14:06;3.78;;;3.38;;
65210;SDS011;51794;52.758;55.792;2022-10-15T08:16:32;5.70;;;4.40;;
65210;SDS011;51794;52.758;55.792;2022-10-15T08:18:58;4.50;;;4.10;;
65210;SDS011;51794;52.758;55.792;2022-10-15T08:21:25;5.15;;;4.28;;
65210;SDS011;51794;52.758;55.792;2022-10-15T08:23:51;8.98;;;4.35;;
65210;SDS011;51794;52.758;55.792;2022-10-15T08:26:17;4.85;;;4.22;;
65210;SDS011;51794;52.758;55.792;2022-10-15T08:28:43;4.95;;;3.90;;
65210;SDS011;51794;52.758;55.792;2022-10-15T08:31:09;4.47;;;4.07;;
65210;SDS011;51794;52.758;55.792;2022-10-15T08:33:35;8.65;;;4.53;;
65210;SDS011;51794;52.758;55.792;2022-10-15T08:36:04;4.88;;;4.00;;
65210;SDS011;51794;52.758;55.792;2022-10-15T08:38:30;6.57;;;4.72;;
65210;SDS011;51794;52.758;55.792;2022-10-15T08:40:57;5.30;;;4.50;;
65210;SDS011;51794;52.758;55.792;2022-10-15T08:43:27;5.20;;;4.70;;
65210;SDS011;51794;52.758;55.792;2022-10-15T08:45:57;5.47;;;4.95;;
65210;SDS011;51794;52.758;55.792;2022-10-15T08:48:27;5.78;;;4.38;;
65210;SDS011;51794;52.758;55.792;2022-10-15T08:50:56;7.00;;;4.45;;
65210;SDS011;51794;52.758;55.792;2022-10-15T08:53:26;6.68;;;4.60;;
65210;SDS011;51794;52.758;55.792;2022-10-15T08:55:54;6.43;;;4.70;;
65210;SDS011;51794;52.758;55.792;2022-10-15T09:00:49;10.98;;;5.53;;
65210;SDS011;51794;52.758;55.792;2022-10-15T09:10:52;6.32;;;5.72;;
65210;SDS011;51794;52.758;55.792;2022-10-15T09:13:27;7.85;;;6.75;;
65210;SDS011;51794;52.758;55.792;2022-10-15T09:15:57;11.60;;;7.28;;
65210;SDS011;51794;52.758;55.792;2022-10-15T09:18:25;10.35;;;8.00;;
65210;SDS011;51794;52.758;55.792;2022-10-15T09:20:53;8.40;;;6.65;;
65210;SDS011;51794;52.758;55.792;2022-10-15T09:23:20;6.97;;;4.85;;
65210;SDS011;51794;52.758;55.792;2022-10-15T09:25:57;6.13;;;5.22;;
65210;SDS011;51794;52.758;55.792;2022-10-15T09:28:25;4.47;;;4.07;;
65210;SDS011;51794;52.758;55.792;2022-10-15T09:30:54;5.55;;;4.40;;
65210;SDS011;51794;52.758;55.792;2022-10-15T09:33:38;4.20;;;3.70;;
65210;SDS011;51794;52.758;55.792;2022-10-15T09:44:12;5.90;;;3.80;;
65210;SDS011;51794;52.758;55.792;2022-10-15T09:46:46;5.95;;;4.25;;
65210;SDS011;51794;52.758;55.792;2022-10-15T09:49:16;5.15;;;4.32;;
65210;SDS011;51794;52.758;55.792;2022-10-15T09:51:49;4.57;;;3.88;;
65210;SDS011;51794;52.758;55.792;2022-10-15T09:56:47;7.68;;;4.78;;
65210;SDS011;51794;52.758;55.792;2022-10-15T09:59:18;7.47;;;5.10;;
65210;SDS011;51794;52.758;55.792;2022-10-15T10:04:30;4.97;;;3.92;;
65210;SDS011;51794;52.758;55.792;2022-10-15T10:06:57;9.55;;;5.15;;
65210;SDS011;51794;52.758;55.792;2022-10-15T10:09:24;7.38;;;4.68;;
65210;SDS011;51794;52.758;55.792;2022-10-15T10:11:52;7.95;;;4.90;;
65210;SDS011;51794;52.758;55.792;2022-10-15T10:14:24;4.75;;;3.63;;
65210;SDS011;51794;52.758;55.792;2022-10-15T10:19:35;4.40;;;3.00;;
65210;SDS011;51794;52.758;55.792;2022-10-15T10:22:10;4.88;;;2.75;;
65210;SDS011;51794;52.758;55.792;2022-10-15T10:24:37;4.32;;;2.97;;
65210;SDS011;51794;52.758;55.792;2022-10-15T10:27:03;5.13;;;2.72;;
65210;SDS011;51794;52.758;55.792;2022-10-15T10:29:40;5.47;;;3.45;;
65210;SDS011;51794;52.758;55.792;2022-10-15T10:32:09;3.80;;;2.25;;
65210;SDS011;51794;52.758;55.792;2022-10-15T10:34:35;4.25;;;2.90;;
65210;SDS011;51794;52.758;55.792;2022-10-15T10:37:02;5.20;;;3.25;;
65210;SDS011;51794;52.758;55.792;2022-10-15T10:39:29;4.65;;;3.65;;
65210;SDS011;51794;52.758;55.792;2022-10-15T10:41:56;6.75;;;4.25;;
65210;SDS011;51794;52.758;55.792;2022-10-15T10:47:16;3.47;;;2.72;;
65210;SDS011;51794;52.758;55.792;2022-10-15T10:49:41;4.60;;;3.10;;
65210;SDS011;51794;52.758;55.792;2022-10-15T10:52:17;6.20;;;4.10;;
65210;SDS011;51794;52.758;55.792;2022-10-15T10:54:43;5.53;;;4.13;;
65210;SDS011;51794;52.758;55.792;2022-10-15T10:57:10;4.57;;;3.60;;
65210;SDS011;51794;52.758;55.792;2022-10-15T10:59:38;5.65;;;3.80;;
65210;SDS011;51794;52.758;55.792;2022-10-15T11:02:09;6.60;;;3.90;;
65210;SDS011;51794;52.758;55.792;2022-10-15T11:04:36;6.82;;;3.97;;
65210;SDS011;51794;52.758;55.792;2022-10-15T11:14:58;8.32;;;6.75;;
65210;SDS011;51794;52.758;55.792;2022-10-15T11:25:30;9.75;;;6.13;;
65210;SDS011;51794;52.758;55.792;2022-10-15T11:35:47;7.88;;;6.28;;
65210;SDS011;51794;52.758;55.792;2022-10-15T11:56:04;10.68;;;5.53;;
65210;SDS011;51794;52.758;55.792;2022-10-15T11:58:44;7.82;;;4.78;;
65210;SDS011;51794;52.758;55.792;2022-10-15T12:01:12;4.35;;;3.55;;
65210;SDS011;51794;52.758;55.792;2022-10-15T12:03:42;5.90;;;3.80;;
65210;SDS011;51794;52.758;55.792;2022-10-15T12:06:14;4.00;;;2.88;;
65210;SDS011;51794;52.758;55.792;2022-10-15T12:08:40;7.97;;;3.17;;
65210;SDS011;51794;52.758;55.792;2022-10-15T12:13:39;5.82;;;3.60;;
65210;SDS011;51794;52.758;55.792;2022-10-15T12:16:24;6.70;;;4.40;;
65210;SDS011;51794;52.758;55.792;2022-10-15T12:23:54;12.25;;;4.30;;
65210;SDS011;51794;52.758;55.792;2022-10-15T12:28:52;12.05;;;5.70;;
65210;SDS011;51794;52.758;55.792;2022-10-15T12:31:19;7.68;;;3.60;;
65210;SDS011;51794;52.758;55.792;2022-10-15T12:33:52;5.35;;;3.03;;
65210;SDS011;51794;52.758;55.792;2022-10-15T12:41:37;6.88;;;4.40;;
65210;SDS011;51794;52.758;55.792;2022-10-15T12:44:06;7.38;;;4.75;;
65210;SDS011;51794;52.758;55.792;2022-10-15T12:46:34;6.53;;;4.22;;
65210;SDS011;51794;52.758;55.792;2022-10-15T12:49:02;11.23;;;6.38;;
65210;SDS011;51794;52.758;55.792;2022-10-15T12:51:47;12.48;;;8.30;;
65210;SDS011;51794;52.758;55.792;2022-10-15T12:56:58;16.20;;;8.93;;
65210;SDS011;51794;52.758;55.792;2022-10-15T12:59:28;17.23;;;9.55;;
65210;SDS011;51794;52.758;55.792;2022-10-15T13:01:55;16.58;;;8.88;;
65210;SDS011;51794;52.758;55.792;2022-10-15T13:04:21;14.15;;;8.77;;
65210;SDS011;51794;52.758;55.792;2022-10-15T13:06:46;16.25;;;8.77;;
65210;SDS011;51794;52.758;55.792;2022-10-15T13:16:52;24.73;;;11.52;;
65210;SDS011;51794;52.758;55.792;2022-10-15T13:21:47;22.27;;;11.68;;
65210;SDS011;51794;52.758;55.792;2022-10-15T13:24:17;23.10;;;12.07;;
65210;SDS011;51794;52.758;55.792;2022-10-15T13:26:43;26.63;;;13.77;;
65210;SDS011;51794;52.758;55.792;2022-10-15T13:29:16;28.48;;;14.85;;
65210;SDS011;51794;52.758;55.792;2022-10-15T13:31:42;30.90;;;17.73;;
65210;SDS011;51794;52.758;55.792;2022-10-15T13:36:38;30.08;;;16.52;;
65210;SDS011;51794;52.758;55.792;2022-10-15T13:39:05;35.67;;;18.17;;
65210;SDS011;51794;52.758;55.792;2022-10-15T13:41:37;25.85;;;12.68;;
65210;SDS011;51794;52.758;55.792;2022-10-15T13:44:17;27.52;;;11.02;;
65210;SDS011;51794;52.758;55.792;2022-10-15T13:46:44;20.00;;;9.57;;
65210;SDS011;51794;52.758;55.792;2022-10-15T13:49:10;27.30;;;12.98;;
65210;SDS011;51794;52.758;55.792;2022-10-15T13:51:37;45.10;;;20.65;;
65210;SDS011;51794;52.758;55.792;2022-10-15T13:54:07;55.85;;;25.90;;
65210;SDS011;51794;52.758;55.792;2022-10-15T13:56:33;44.08;;;21.75;;
65210;SDS011;51794;52.758;55.792;2022-10-15T13:58:59;37.08;;;17.65;;
65210;SDS011;51794;52.758;55.792;2022-10-15T14:01:26;34.28;;;16.05;;
65210;SDS011;51794;52.758;55.792;2022-10-15T14:03:53;19.38;;;12.07;;
65210;SDS011;51794;52.758;55.792;2022-10-15T14:08:46;17.42;;;12.05;;
65210;SDS011;51794;52.758;55.792;2022-10-15T14:11:13;18.73;;;11.23;;
65210;SDS011;51794;52.758;55.792;2022-10-15T14:13:42;12.23;;;7.93;;
65210;SDS011;51794;52.758;55.792;2022-10-15T14:18:40;10.25;;;7.50;;
65210;SDS011;51794;52.758;55.792;2022-10-15T14:21:09;11.48;;;7.45;;
65210;SDS011;51794;52.758;55.792;2022-10-15T14:23:36;12.07;;;5.97;;
65210;SDS011;51794;52.758;55.792;2022-10-15T14:26:02;9.43;;;5.90;;
65210;SDS011;51794;52.758;55.792;2022-10-15T14:28:29;8.23;;;5.28;;
65210;SDS011;51794;52.758;55.792;2022-10-15T14:30:56;10.88;;;5.60;;
65210;SDS011;51794;52.758;55.792;2022-10-15T14:36:07;7.85;;;5.40;;
65210;SDS011;51794;52.758;55.792;2022-10-15T14:38:33;7.07;;;5.32;;
65210;SDS011;51794;52.758;55.792;2022-10-15T14:40:59;8.77;;;5.15;;
65210;SDS011;51794;52.758;55.792;2022-10-15T14:43:32;7.00;;;5.55;;
65210;SDS011;51794;52.758;55.792;2022-10-15T14:45:59;6.65;;;5.68;;
65210;SDS011;51794;52.758;55.792;2022-10-15T14:48:26;7.00;;;5.10;;
65210;SDS011;51794;52.758;55.792;2022-10-15T14:50:55;5.35;;;4.00;;
65210;SDS011;51794;52.758;55.792;2022-10-15T14:53:28;5.05;;;4.30;;
65210;SDS011;51794;52.758;55.792;2022-10-15T14:55:56;6.63;;;3.92;;
65210;SDS011;51794;52.758;55.792;2022-10-15T14:58:22;10.52;;;5.32;;
65210;SDS011;51794;52.758;55.792;2022-10-15T15:01:02;9.63;;;5.07;;
65210;SDS011;51794;52.758;55.792;2022-10-15T15:03:39;4.85;;;3.97;;
65210;SDS011;51794;52.758;55.792;2022-10-15T15:06:05;10.93;;;4.05;;
65210;SDS011;51794;52.758;55.792;2022-10-15T15:08:31;8.35;;;4.70;;
65210;SDS011;51794;52.758;55.792;2022-10-15T15:10:58;7.60;;;3.72;;
65210;SDS011;51794;52.758;55.792;2022-10-15T15:13:25;5.72;;;3.63;;
65210;SDS011;51794;52.758;55.792;2022-10-15T15:15:52;4.63;;;3.65;;
65210;SDS011;51794;52.758;55.792;2022-10-15T15:18:18;6.15;;;4.43;;
65210;SDS011;51794;52.758;55.792;2022-10-15T15:20:44;6.32;;;4.47;;
65210;SDS011;51794;52.758;55.792;2022-10-15T15:23:13;6.13;;;4.10;;
65210;SDS011;51794;52.758;55.792;2022-10-15T15:25:40;4.13;;;3.58;;
65210;SDS011;51794;52.758;55.792;2022-10-15T15:28:11;4.20;;;3.40;;
65210;SDS011;51794;52.758;55.792;2022-10-15T15:30:38;6.47;;;4.05;;
65210;SDS011;51794;52.758;55.792;2022-10-15T15:33:04;3.72;;;3.30;;
65210;SDS011;51794;52.758;55.792;2022-10-15T15:38:05;5.90;;;3.92;;
65210;SDS011;51794;52.758;55.792;2022-10-15T15:40:31;7.22;;;4.25;;
65210;SDS011;51794;52.758;55.792;2022-10-15T15:42:57;7.40;;;5.22;;
65210;SDS011;51794;52.758;55.792;2022-10-15T15:45:24;8.20;;;5.75;;
65210;SDS011;51794;52.758;55.792;2022-10-15T15:47:49;8.23;;;5.95;;
65210;SDS011;51794;52.758;55.792;2022-10-15T15:50:16;8.90;;;5.07;;
65210;SDS011;51794;52.758;55.792;2022-10-15T15:52:42;6.78;;;4.28;;
65210;SDS011;51794;52.758;55.792;2022-10-15T15:55:08;3.40;;;3.10;;
65210;SDS011;51794;52.758;55.792;2022-10-15T15:57:34;3.60;;;3.25;;
65210;SDS011;51794;52.758;55.792;2022-10-15T16:00:00;5.40;;;3.78;;
65210;SDS011;51794;52.758;55.792;2022-10-15T16:02:25;5.90;;;3.42;;
65210;SDS011;51794;52.758;55.792;2022-10-15T16:04:51;5.13;;;4.07;;
65210;SDS011;51794;52.758;55.792;2022-10-15T16:07:17;6.00;;;3.63;;
65210;SDS011;51794;52.758;55.792;2022-10-15T16:09:43;6.20;;;4.28;;
65210;SDS011;51794;52.758;55.792;2022-10-15T16:12:09;6.22;;;4.28;;
65210;SDS011;51794;52.758;55.792;2022-10-15T16:14:35;5.00;;;4.38;;
65210;SDS011;51794;52.758;55.792;2022-10-15T16:17:00;6.65;;;4.43;;
65210;SDS011;51794;52.758;55.792;2022-10-15T16:19:26;7.90;;;4.20;;
65210;SDS011;51794;52.758;55.792;2022-10-15T16:21:52;6.78;;;4.93;;
65210;SDS011;51794;52.758;55.792;2022-10-15T16:24:17;7.53;;;4.90;;
65210;SDS011;51794;52.758;55.792;2022-10-15T16:26:43;5.28;;;4.50;;
65210;SDS011;51794;52.758;55.792;2022-10-15T16:29:09;5.07;;;3.97;;
65210;SDS011;51794;52.758;55.792;2022-10-15T16:31:35;6.53;;;3.90;;
65210;SDS011;51794;52.758;55.792;2022-10-15T16:34:02;5.95;;;3.30;;
65210;SDS011;51794;52.758;55.792;2022-10-15T16:36:28;5.10;;;3.50;;
65210;SDS011;51794;52.758;55.792;2022-10-15T16:38:53;5.22;;;4.20;;
65210;SDS011;51794;52.758;55.792;2022-10-15T16:41:19;5.65;;;4.18;;
65210;SDS011;51794;52.758;55.792;2022-10-15T16:43:46;6.13;;;4.38;;
65210;SDS011;51794;52.758;55.792;2022-10-15T16:46:12;5.32;;;4.15;;
65210;SDS011;51794;52.758;55.792;2022-10-15T16:48:38;5.45;;;3.47;;